createdAt,value
2023-01-19T00:00:55.656Z,1.07
2023-01-19T00:03:23.494Z,1.13
2023-01-19T00:05:51.350Z,1.22
2023-01-19T00:08:18.766Z,1.28
2023-01-19T00:10:51.102Z,1.34
2023-01-19T00:13:18.265Z,1.38
2023-01-19T00:15:45.959Z,1.44
2023-01-19T00:18:12.979Z,1.50
2023-01-19T00:20:41.873Z,1.56
2023-01-19T00:23:09.403Z,1.63
2023-01-19T00:25:42.574Z,1.68
2023-01-19T00:28:15.514Z,1.74
2023-01-19T00:30:44.520Z,1.77
2023-01-19T00:33:16.027Z,1.79
2023-01-19T00:35:43.751Z,1.83
2023-01-19T00:38:13.691Z,1.84
2023-01-19T00:40:40.800Z,1.83
2023-01-19T00:43:08.047Z,1.82
2023-01-19T00:45:35.747Z,1.82
2023-01-19T00:48:03.100Z,1.81
2023-01-19T00:50:32.034Z,1.87
2023-01-19T00:53:03.812Z,1.88
2023-01-19T00:55:33.266Z,1.90
2023-01-19T00:58:00.383Z,1.87
2023-01-19T01:00:27.525Z,1.86
2023-01-19T01:02:55.000Z,1.83
2023-01-19T01:05:22.409Z,1.80
2023-01-19T01:07:49.821Z,1.79
2023-01-19T01:10:24.936Z,1.75
2023-01-19T01:12:54.873Z,1.75
2023-01-19T01:15:26.453Z,1.74
2023-01-19T01:17:54.233Z,1.74
2023-01-19T01:20:27.977Z,1.73
2023-01-19T01:22:56.674Z,1.72
2023-01-19T01:25:26.311Z,1.71
2023-01-19T01:27:54.280Z,1.71
2023-01-19T01:30:22.154Z,1.71
2023-01-19T01:32:49.528Z,1.70
2023-01-19T01:35:17.229Z,1.71
2023-01-19T01:37:44.633Z,1.70
2023-01-19T01:40:17.623Z,1.74
2023-01-19T01:42:45.688Z,1.76
2023-01-19T01:45:29.931Z,1.81
2023-01-19T01:48:02.276Z,1.88
2023-01-19T01:50:33.026Z,1.93
2023-01-19T01:53:07.981Z,1.99
2023-01-19T01:55:46.908Z,2.03
2023-01-19T01:58:16.297Z,2.08
2023-01-19T02:01:02.341Z,2.13
2023-01-19T02:03:29.735Z,2.18
2023-01-19T02:06:00.885Z,2.22
2023-01-19T02:09:00.764Z,2.26
2023-01-19T02:11:48.253Z,2.29
2023-01-19T02:14:15.383Z,2.30
2023-01-19T02:16:42.955Z,2.33
2023-01-19T02:19:17.520Z,2.34
2023-01-19T02:22:11.806Z,2.32
2023-01-19T02:24:39.191Z,2.28
2023-01-19T02:27:08.245Z,2.26
2023-01-19T02:29:35.709Z,2.20
2023-01-19T02:32:03.171Z,2.15
2023-01-19T02:34:30.701Z,2.12
2023-01-19T02:36:59.302Z,2.10
2023-01-19T02:39:39.382Z,2.07
2023-01-19T02:42:32.486Z,2.05
2023-01-19T02:44:59.999Z,2.01
2023-01-19T02:47:26.976Z,2.00
2023-01-19T02:50:00.943Z,1.99
2023-01-19T02:52:28.573Z,1.98
2023-01-19T02:55:05.736Z,1.97
2023-01-19T02:57:43.643Z,1.96
2023-01-19T03:00:28.812Z,1.96
2023-01-19T03:03:40.292Z,1.90
2023-01-19T03:06:24.268Z,1.88
2023-01-19T03:09:04.617Z,1.90
2023-01-19T03:11:39.769Z,1.95
2023-01-19T03:14:18.142Z,1.99
2023-01-19T03:16:55.625Z,2.05
2023-01-19T03:19:34.106Z,2.13
2023-01-19T03:22:06.607Z,2.18
2023-01-19T03:24:40.003Z,2.24
2023-01-19T03:27:15.065Z,2.32
2023-01-19T03:29:48.878Z,2.39
2023-01-19T03:32:19.643Z,2.45
2023-01-19T03:34:48.824Z,2.49
2023-01-19T03:37:17.878Z,2.53
2023-01-19T03:39:45.359Z,2.59
2023-01-19T03:42:16.267Z,2.61
2023-01-19T03:44:45.591Z,2.64
2023-01-19T03:47:15.143Z,2.67
2023-01-19T03:49:45.544Z,2.68
2023-01-19T03:52:12.861Z,2.72
2023-01-19T03:54:41.011Z,2.72
2023-01-19T03:57:08.315Z,2.72
2023-01-19T03:59:35.609Z,2.70
2023-01-19T04:02:03.019Z,2.71
2023-01-19T04:04:30.214Z,2.72
2023-01-19T04:06:57.762Z,2.74
2023-01-19T04:09:25.742Z,2.72
2023-01-19T04:11:53.051Z,2.72
2023-01-19T04:14:20.681Z,2.72
2023-01-19T04:16:47.758Z,2.74
2023-01-19T04:19:14.922Z,2.75
2023-01-19T04:21:42.246Z,2.80
2023-01-19T04:24:10.679Z,2.80
2023-01-19T04:26:37.732Z,2.85
2023-01-19T04:29:05.602Z,2.86
2023-01-19T04:31:33.017Z,2.86
2023-01-19T04:34:00.095Z,2.86
2023-01-19T04:36:27.575Z,2.87
2023-01-19T04:38:54.849Z,2.87
2023-01-19T04:41:22.125Z,2.90
2023-01-19T04:43:49.412Z,2.90
2023-01-19T04:46:16.495Z,2.91
2023-01-19T04:48:43.598Z,2.90
2023-01-19T04:51:10.577Z,2.90
2023-01-19T04:53:37.625Z,2.92
2023-01-19T04:56:04.990Z,2.92
2023-01-19T04:58:31.992Z,2.91
2023-01-19T05:00:59.525Z,2.88
2023-01-19T05:03:26.997Z,2.90
2023-01-19T05:05:54.352Z,2.90
2023-01-19T05:08:21.687Z,2.94
2023-01-19T05:10:48.578Z,2.94
2023-01-19T05:13:15.645Z,2.95
2023-01-19T05:15:42.779Z,2.96
2023-01-19T05:18:09.837Z,2.95
2023-01-19T05:20:36.772Z,2.95
2023-01-19T05:23:04.058Z,2.93
2023-01-19T05:25:31.200Z,2.94
2023-01-19T05:27:58.315Z,2.91
2023-01-19T05:30:25.434Z,2.91
2023-01-19T05:32:52.486Z,2.91
2023-01-19T05:35:27.764Z,2.87
2023-01-19T05:37:58.790Z,2.85
2023-01-19T05:40:26.144Z,2.86
2023-01-19T05:42:53.267Z,2.88
2023-01-19T05:45:20.373Z,2.86
2023-01-19T05:47:47.639Z,2.86
2023-01-19T05:50:14.817Z,2.87
2023-01-19T05:52:41.847Z,2.86
2023-01-19T05:55:09.411Z,2.83
2023-01-19T05:57:36.439Z,2.81
2023-01-19T06:00:05.409Z,2.82
2023-01-19T06:02:36.170Z,2.83
2023-01-19T06:05:04.466Z,2.84
2023-01-19T06:07:31.999Z,2.86
2023-01-19T06:09:59.289Z,2.87
2023-01-19T06:12:26.937Z,2.88
2023-01-19T06:14:53.962Z,2.87
2023-01-19T06:17:21.011Z,2.86
2023-01-19T06:19:48.131Z,2.82
2023-01-19T06:22:15.311Z,2.79
2023-01-19T06:24:42.476Z,2.77
2023-01-19T06:27:09.576Z,2.75
2023-01-19T06:29:36.589Z,2.74
2023-01-19T06:32:04.002Z,2.75
2023-01-19T06:34:31.067Z,2.74
2023-01-19T06:36:59.127Z,2.75
2023-01-19T06:39:27.459Z,2.75
2023-01-19T06:41:54.788Z,2.76
2023-01-19T06:44:22.555Z,2.72
2023-01-19T06:46:49.603Z,2.72
2023-01-19T06:49:16.602Z,2.72
2023-01-19T06:51:43.647Z,2.73
2023-01-19T06:54:10.902Z,2.70
2023-01-19T06:56:37.884Z,2.69
2023-01-19T06:59:05.967Z,2.69
2023-01-19T07:01:33.341Z,2.71
2023-01-19T07:04:00.401Z,2.69
2023-01-19T07:06:27.586Z,2.69
2023-01-19T07:08:54.822Z,2.71
2023-01-19T07:11:30.514Z,2.73
2023-01-19T07:13:57.640Z,2.75
2023-01-19T07:16:25.007Z,2.74
2023-01-19T07:18:52.078Z,2.72
2023-01-19T07:21:19.437Z,2.72
2023-01-19T07:23:52.587Z,2.71
2023-01-19T07:26:21.383Z,2.71
2023-01-19T07:28:48.960Z,2.68
2023-01-19T07:31:16.909Z,2.66
2023-01-19T07:33:44.702Z,2.63
2023-01-19T07:36:12.141Z,2.61
2023-01-19T07:38:39.051Z,2.60
2023-01-19T07:41:09.752Z,2.58
2023-01-19T07:43:36.937Z,2.56
2023-01-19T07:46:06.508Z,2.60
2023-01-19T07:48:33.568Z,2.57
2023-01-19T07:51:10.394Z,2.58
2023-01-19T07:53:39.963Z,2.56
2023-01-19T07:56:07.963Z,2.54
2023-01-19T07:58:35.047Z,2.52
2023-01-19T08:01:10.383Z,2.54
2023-01-19T08:03:37.893Z,2.51
2023-01-19T08:06:05.757Z,2.53
2023-01-19T08:08:34.415Z,2.54
2023-01-19T08:11:01.357Z,2.56
2023-01-19T08:13:28.341Z,2.61
2023-01-19T08:15:55.307Z,2.62
2023-01-19T08:18:22.478Z,2.64
2023-01-19T08:20:49.510Z,2.65
2023-01-19T08:23:18.024Z,2.64
2023-01-19T08:25:45.882Z,2.67
2023-01-19T08:28:15.561Z,2.69
2023-01-19T08:30:44.827Z,2.70
2023-01-19T08:33:14.441Z,2.75
2023-01-19T08:35:47.157Z,2.77
2023-01-19T08:38:14.614Z,2.80
2023-01-19T08:40:42.482Z,2.86
2023-01-19T08:43:14.656Z,2.95
2023-01-19T08:45:48.080Z,3.03
2023-01-19T08:48:23.339Z,3.10
2023-01-19T08:50:51.806Z,3.11
2023-01-19T08:53:23.067Z,3.11
2023-01-19T08:55:55.342Z,3.14
2023-01-19T08:58:22.339Z,3.08
2023-01-19T09:00:52.445Z,3.01
2023-01-19T09:03:22.549Z,2.98
2023-01-19T09:05:49.695Z,2.95
2023-01-19T09:08:16.885Z,2.94
2023-01-19T09:10:49.737Z,2.91
2023-01-19T09:13:18.738Z,2.90
2023-01-19T09:15:46.332Z,2.87
2023-01-19T09:18:17.615Z,2.90
2023-01-19T09:20:47.861Z,2.94
2023-01-19T09:23:18.183Z,2.99
2023-01-19T09:25:47.167Z,3.01
2023-01-19T09:28:17.600Z,2.96
2023-01-19T09:30:45.255Z,3.01
2023-01-19T09:33:17.653Z,3.04
2023-01-19T09:35:47.378Z,3.11
2023-01-19T09:38:16.707Z,3.20
2023-01-19T09:40:49.848Z,3.29
2023-01-19T09:43:58.340Z,3.38
2023-01-19T09:46:41.421Z,3.42
2023-01-19T09:49:27.588Z,3.46
2023-01-19T09:51:55.135Z,3.51
2023-01-19T09:54:47.964Z,3.52
2023-01-19T09:57:15.086Z,3.53
2023-01-19T09:59:43.886Z,3.54
2023-01-19T10:02:46.474Z,3.61
2023-01-19T10:05:30.816Z,3.57
2023-01-19T10:08:10.310Z,3.53
2023-01-19T10:10:40.767Z,3.51
2023-01-19T10:13:42.435Z,3.53
2023-01-19T10:17:06.752Z,3.45
2023-01-19T10:19:42.349Z,3.42
2023-01-19T10:22:28.523Z,3.44
2023-01-19T10:24:59.403Z,3.43
2023-01-19T10:27:32.047Z,3.40
2023-01-19T10:30:00.829Z,3.38
2023-01-19T10:32:39.065Z,3.34
2023-01-19T10:35:23.423Z,3.34
2023-01-19T10:37:58.559Z,3.36
2023-01-19T10:40:43.122Z,3.35
2023-01-19T10:43:34.844Z,3.33
2023-01-19T10:46:22.949Z,3.35
2023-01-19T10:48:52.621Z,3.36
2023-01-19T10:51:20.694Z,3.36
2023-01-19T10:53:58.487Z,3.37
2023-01-19T10:56:34.362Z,3.36
2023-01-19T10:59:04.882Z,3.36
2023-01-19T11:01:36.845Z,3.38
2023-01-19T11:04:28.817Z,3.39
2023-01-19T11:07:27.296Z,3.39
2023-01-19T11:10:16.199Z,3.40
2023-01-19T11:12:52.351Z,3.42
2023-01-19T11:15:24.811Z,3.41
2023-01-19T11:17:53.610Z,3.42
2023-01-19T11:20:26.308Z,3.39
2023-01-19T11:23:29.115Z,3.39
2023-01-19T11:26:01.570Z,3.36
2023-01-19T11:28:38.039Z,3.35
2023-01-19T11:31:11.086Z,3.38
2023-01-19T11:33:52.268Z,3.39
2023-01-19T11:36:24.361Z,3.40
2023-01-19T11:38:57.617Z,3.41
2023-01-19T11:41:37.318Z,3.44
2023-01-19T11:44:29.961Z,3.50
2023-01-19T11:47:06.765Z,3.54
2023-01-19T11:49:57.664Z,3.54
2023-01-19T11:52:34.845Z,3.51
2023-01-19T11:55:23.490Z,3.45
2023-01-19T11:57:54.409Z,3.39
2023-01-19T12:00:43.653Z,3.38
2023-01-19T12:03:41.384Z,3.35
2023-01-19T12:06:29.947Z,3.36
2023-01-19T12:09:17.694Z,3.38
2023-01-19T12:11:53.527Z,3.36
2023-01-19T12:14:35.347Z,3.39
2023-01-19T12:17:06.036Z,3.41
2023-01-19T12:20:27.314Z,3.38
2023-01-19T12:23:36.060Z,3.38
2023-01-19T12:26:38.147Z,3.37
2023-01-19T12:29:21.743Z,3.34
2023-01-19T12:32:13.456Z,3.35
2023-01-19T12:34:46.511Z,3.39
2023-01-19T12:37:31.235Z,3.42
2023-01-19T12:40:03.984Z,3.42
2023-01-19T12:42:31.533Z,3.40
2023-01-19T12:45:14.216Z,3.42
2023-01-19T12:47:53.065Z,3.39
2023-01-19T12:50:24.151Z,3.38
2023-01-19T12:52:57.365Z,3.37
2023-01-19T12:55:31.133Z,3.35
2023-01-19T12:58:07.831Z,3.35
2023-01-19T13:00:38.443Z,3.35
2023-01-19T13:03:25.423Z,3.36
2023-01-19T13:05:57.339Z,3.34
2023-01-19T13:08:28.231Z,3.28
2023-01-19T13:11:07.848Z,3.28
2023-01-19T13:13:38.420Z,3.27
2023-01-19T13:16:20.986Z,3.25
2023-01-19T13:19:14.967Z,3.24
2023-01-19T13:21:48.308Z,3.27
2023-01-19T13:24:24.122Z,3.27
2023-01-19T13:26:51.531Z,3.29
2023-01-19T13:29:38.141Z,3.27
2023-01-19T13:32:13.848Z,3.25
2023-01-19T13:34:48.896Z,3.27
2023-01-19T13:37:21.236Z,3.23
2023-01-19T13:39:51.887Z,3.19
2023-01-19T13:42:29.982Z,3.16
2023-01-19T13:45:02.058Z,3.16
2023-01-19T13:47:45.476Z,3.12
2023-01-19T13:50:39.470Z,3.09
2023-01-19T13:53:21.232Z,3.09
2023-01-19T13:55:48.716Z,3.09
2023-01-19T13:58:23.711Z,3.04
2023-01-19T14:00:50.817Z,3.04
2023-01-19T14:03:24.173Z,3.05
2023-01-19T14:05:54.998Z,3.05
2023-01-19T14:08:23.027Z,3.07
2023-01-19T14:11:00.069Z,3.06
2023-01-19T14:13:31.332Z,3.05
2023-01-19T14:16:25.383Z,3.02
2023-01-19T14:19:04.519Z,2.96
2023-01-19T14:21:40.778Z,2.97
2023-01-19T14:24:19.896Z,2.93
2023-01-19T14:27:18.988Z,2.87
2023-01-19T14:29:49.928Z,2.84
2023-01-19T14:32:21.692Z,2.81
2023-01-19T14:35:13.439Z,2.80
2023-01-19T14:37:49.861Z,2.76
2023-01-19T14:40:20.874Z,2.76
2023-01-19T14:42:57.550Z,2.71
2023-01-19T14:45:36.077Z,2.69
2023-01-19T14:48:18.177Z,2.63
2023-01-19T14:51:02.041Z,2.57
2023-01-19T14:53:36.750Z,2.54
2023-01-19T14:56:06.408Z,2.53
2023-01-19T14:58:35.942Z,2.52
2023-01-19T15:01:04.610Z,2.50
2023-01-19T15:03:44.193Z,2.48
2023-01-19T15:06:19.653Z,2.46
2023-01-19T15:08:49.953Z,2.44
2023-01-19T15:11:22.679Z,2.43
2023-01-19T15:13:51.133Z,2.42
2023-01-19T15:16:19.204Z,2.40
2023-01-19T15:18:46.423Z,2.37
2023-01-19T15:21:23.825Z,2.34
2023-01-19T15:23:50.996Z,2.37
2023-01-19T15:26:21.174Z,2.34
2023-01-19T15:28:49.224Z,2.33
2023-01-19T15:31:22.508Z,2.30
2023-01-19T15:33:50.171Z,2.29
2023-01-19T15:36:21.828Z,2.27
2023-01-19T15:38:51.015Z,2.29
2023-01-19T15:41:27.432Z,2.26
2023-01-19T15:43:54.749Z,2.26
2023-01-19T15:46:23.728Z,2.24
2023-01-19T15:48:51.566Z,2.24
2023-01-19T15:51:21.826Z,2.22
2023-01-19T15:53:50.580Z,2.21
2023-01-19T15:56:24.489Z,2.20
2023-01-19T15:58:53.498Z,2.20
2023-01-19T16:01:23.844Z,2.19
2023-01-19T16:03:51.246Z,2.18
2023-01-19T16:06:18.678Z,2.18
2023-01-19T16:08:45.791Z,2.19
2023-01-19T16:11:15.535Z,2.17
2023-01-19T16:13:46.248Z,2.17
2023-01-19T16:16:20.513Z,2.16
2023-01-19T16:18:48.171Z,2.16
2023-01-19T16:21:15.645Z,2.16
2023-01-19T16:23:42.763Z,2.14
2023-01-19T16:26:34.883Z,2.12
2023-01-19T16:29:10.708Z,2.11
2023-01-19T16:31:39.307Z,2.10
2023-01-19T16:34:06.678Z,2.11
2023-01-19T16:36:37.500Z,2.11
2023-01-19T16:39:09.297Z,2.08
2023-01-19T16:41:36.855Z,2.09
2023-01-19T16:44:04.621Z,2.10
2023-01-19T16:46:35.586Z,2.09
2023-01-19T16:49:13.102Z,2.08
2023-01-19T16:51:40.220Z,2.06
2023-01-19T16:54:07.333Z,2.06
2023-01-19T16:56:34.501Z,2.05
2023-01-19T16:59:01.465Z,2.06
2023-01-19T17:01:29.519Z,2.06
2023-01-19T17:03:56.934Z,2.05
2023-01-19T17:06:24.983Z,2.04
2023-01-19T17:08:53.209Z,2.05
2023-01-19T17:11:24.835Z,2.04
2023-01-19T17:14:16.277Z,2.01
2023-01-19T17:16:44.518Z,2.00
2023-01-19T17:19:17.290Z,2.01
2023-01-19T17:21:49.402Z,1.99
2023-01-19T17:24:17.340Z,1.98
2023-01-19T17:26:45.940Z,1.99
2023-01-19T17:29:13.357Z,1.99
2023-01-19T17:31:40.670Z,2.01
2023-01-19T17:34:09.555Z,1.99
2023-01-19T17:36:36.659Z,1.98
2023-01-19T17:39:08.899Z,1.98
2023-01-19T17:41:36.329Z,1.99
2023-01-19T17:44:05.558Z,1.97
2023-01-19T17:46:37.347Z,1.97
2023-01-19T17:49:07.068Z,1.96
2023-01-19T17:51:34.651Z,1.98
2023-01-19T17:54:02.105Z,1.97
2023-01-19T17:56:33.461Z,1.98
2023-01-19T17:59:00.467Z,1.97
2023-01-19T18:01:30.927Z,1.97
2023-01-19T18:03:59.070Z,1.95
2023-01-19T18:06:26.156Z,1.95
2023-01-19T18:08:53.436Z,1.90
2023-01-19T18:11:21.714Z,1.88
2023-01-19T18:13:50.472Z,1.85
2023-01-19T18:16:25.592Z,1.84
2023-01-19T18:18:54.696Z,1.84
2023-01-19T18:21:23.955Z,1.85
2023-01-19T18:23:51.770Z,1.81
2023-01-19T18:26:21.862Z,1.79
2023-01-19T18:28:49.638Z,1.79
2023-01-19T18:31:18.941Z,1.78
2023-01-19T18:33:48.121Z,1.79
2023-01-19T18:36:16.677Z,1.78
2023-01-19T18:38:45.176Z,1.76
2023-01-19T18:41:18.250Z,1.74
2023-01-19T18:43:46.599Z,1.69
2023-01-19T18:46:15.160Z,1.69
2023-01-19T18:48:42.463Z,1.65
2023-01-19T18:51:13.041Z,1.62
2023-01-19T18:53:40.967Z,1.58
2023-01-19T18:56:11.811Z,1.56
2023-01-19T18:58:39.257Z,1.52
2023-01-19T19:01:18.280Z,1.50
2023-01-19T19:03:45.376Z,1.45
2023-01-19T19:06:12.787Z,1.44
2023-01-19T19:08:40.012Z,1.41
2023-01-19T19:11:08.458Z,1.39
2023-01-19T19:13:35.588Z,1.36
2023-01-19T19:16:05.812Z,1.34
2023-01-19T19:18:35.641Z,1.32
2023-01-19T19:21:12.165Z,1.31
2023-01-19T19:23:39.383Z,1.28
2023-01-19T19:26:10.054Z,1.26
2023-01-19T19:28:40.539Z,1.25
2023-01-19T19:31:11.996Z,1.21
2023-01-19T19:33:40.336Z,1.18
2023-01-19T19:36:09.256Z,1.17
2023-01-19T19:38:36.876Z,1.15
2023-01-19T19:41:16.209Z,1.10
2023-01-19T19:43:43.266Z,1.09
2023-01-19T19:46:14.642Z,1.09
2023-01-19T19:48:42.448Z,1.07
2023-01-19T19:51:18.862Z,1.06
2023-01-19T19:53:49.579Z,1.05
2023-01-19T19:56:21.149Z,1.03
2023-01-19T19:58:50.137Z,1.02
2023-01-19T20:01:28.066Z,1.01
2023-01-19T20:03:58.720Z,0.99
2023-01-19T20:06:27.406Z,0.98
2023-01-19T20:08:56.352Z,0.95
2023-01-19T20:11:28.188Z,0.96
2023-01-19T20:13:55.435Z,0.93
2023-01-19T20:16:23.695Z,0.90
2023-01-19T20:18:54.248Z,0.89
2023-01-19T20:21:28.469Z,0.89
2023-01-19T20:24:00.229Z,0.87
2023-01-19T20:26:31.414Z,0.83
2023-01-19T20:29:11.916Z,0.81
2023-01-19T20:31:52.764Z,0.78
2023-01-19T20:34:26.246Z,0.74
2023-01-19T20:36:54.222Z,0.70
2023-01-19T20:39:23.558Z,0.68
2023-01-19T20:41:52.470Z,0.63
2023-01-19T20:44:25.181Z,0.58
2023-01-19T20:46:53.573Z,0.54
2023-01-19T20:49:20.911Z,0.50
2023-01-19T20:51:48.283Z,0.45
2023-01-19T20:54:18.768Z,0.41
2023-01-19T20:56:45.877Z,0.37
2023-01-19T20:59:13.428Z,0.32
2023-01-19T21:01:41.735Z,0.27
2023-01-19T21:04:11.190Z,0.24
2023-01-19T21:06:39.215Z,0.20
2023-01-19T21:09:07.206Z,0.11
2023-01-19T21:11:35.677Z,0.07
2023-01-19T21:14:02.992Z,0.03
2023-01-19T21:16:33.659Z,0.01
2023-01-19T21:19:01.223Z,-0.05
2023-01-19T21:21:31.497Z,-0.10
2023-01-19T21:24:01.272Z,-0.14
2023-01-19T21:26:30.137Z,-0.17
2023-01-19T21:29:01.687Z,-0.22
2023-01-19T21:31:29.176Z,-0.26
2023-01-19T21:33:57.721Z,-0.30
2023-01-19T21:36:25.024Z,-0.33
2023-01-19T21:38:52.425Z,-0.36
2023-01-19T21:41:20.110Z,-0.38
2023-01-19T21:43:47.614Z,-0.42
2023-01-19T21:46:28.920Z,-0.44
2023-01-19T21:48:58.251Z,-0.49
2023-01-19T21:51:25.869Z,-0.53
2023-01-19T21:53:54.990Z,-0.58
2023-01-19T21:56:22.974Z,-0.65
2023-01-19T21:58:49.953Z,-0.69
2023-01-19T22:01:17.146Z,-0.76
2023-01-19T22:03:44.357Z,-0.83
2023-01-19T22:06:14.293Z,-0.90
2023-01-19T22:08:42.379Z,-0.95
2023-01-19T22:11:12.728Z,-1.01
2023-01-19T22:13:41.198Z,-1.05
2023-01-19T22:16:12.170Z,-1.06
2023-01-19T22:18:44.146Z,-1.08
2023-01-19T22:21:21.290Z,-1.13
2023-01-19T22:23:51.145Z,-1.17
2023-01-19T22:26:19.007Z,-1.20
2023-01-19T22:28:46.576Z,-1.22
2023-01-19T22:31:17.296Z,-1.23
2023-01-19T22:33:45.114Z,-1.25
2023-01-19T22:36:27.235Z,-1.30
2023-01-19T22:38:56.612Z,-1.30
2023-01-19T22:41:34.349Z,-1.32
2023-01-19T22:44:05.587Z,-1.36
2023-01-19T22:46:35.431Z,-1.37
2023-01-19T22:49:03.395Z,-1.37
2023-01-19T22:51:32.529Z,-1.39
2023-01-19T22:53:59.929Z,-1.40
2023-01-19T22:56:29.920Z,-1.41
2023-01-19T22:58:58.631Z,-1.42
2023-01-19T23:01:35.057Z,-1.44
2023-01-19T23:04:04.450Z,-1.49
2023-01-19T23:06:34.801Z,-1.52
2023-01-19T23:09:06.042Z,-1.58
2023-01-19T23:11:37.850Z,-1.62
2023-01-19T23:14:11.497Z,-1.65
2023-01-19T23:16:38.571Z,-1.68
2023-01-19T23:19:06.410Z,-1.71
2023-01-19T23:21:33.969Z,-1.73
2023-01-19T23:24:03.600Z,-1.74
2023-01-19T23:26:38.239Z,-1.78
2023-01-19T23:29:10.534Z,-1.83
2023-01-19T23:31:40.009Z,-1.87
2023-01-19T23:34:10.445Z,-1.90
2023-01-19T23:36:40.256Z,-1.91
2023-01-19T23:39:13.252Z,-1.94
2023-01-19T23:41:40.492Z,-1.95
2023-01-19T23:44:07.809Z,-1.97
2023-01-19T23:46:35.037Z,-1.98
2023-01-19T23:49:02.075Z,-2.00
2023-01-19T23:51:31.436Z,-2.00
2023-01-19T23:54:00.108Z,-2.03
2023-01-19T23:56:33.600Z,-2.04
2023-01-19T23:59:08.323Z,-2.08
